Time;durP1;ratioP1;P1;durP2;ratioP2;P2;SDS_P1;SDS_P2;PMS_P1;PMS_P2;Temp;Humidity;BMP_temperature;BMP_pressure;BME280_temperature;BME280_humidity;BME280_pressure;Samples;Min_cycle;Max_cycle;Signal;HPM_P1;HPM_P2
2023/11/23 00:02:07;;;;;;;;;;;;;;;5.93;nan;101847.63;5037268;28;19931;-87
2023/11/23 00:04:32;;;;;;;;;;;;;;;5.90;nan;101826.69;5034257;28;19924;-85
2023/11/23 00:06:58;;;;;;;;;;;;;;;5.91;nan;101824.84;5039318;28;19943;-86
2023/11/23 00:09:25;;;;;;;;;;;;;;;5.87;nan;101821.72;5038227;28;19924;-86
2023/11/23 00:11:50;;;;;;;;;;;;;;;5.85;nan;101813.13;5038362;28;19917;-85
2023/11/23 00:14:15;;;;;;;;;;;;;;;5.91;nan;101798.25;5040451;28;19923;-86
2023/11/23 00:16:43;;;;;;;;;;;;;;;5.90;nan;101785.97;5034594;28;19927;-86
2023/11/23 00:19:09;;;;;;;;;;;;;;;5.88;nan;101780.00;5036231;28;19979;-84
2023/11/23 00:21:35;;;;;;;;;;;;;;;5.88;nan;101778.16;5032379;28;19921;-85
2023/11/23 00:24:01;;;;;;;;;;;;;;;5.90;nan;101768.19;5039052;28;19917;-85
2023/11/23 00:26:26;;;;;;;;;;;;;;;5.87;nan;101757.06;5037480;28;20518;-85
2023/11/23 00:28:51;;;;;;;;;;;;;;;5.81;nan;101747.22;5037126;28;19923;-87
2023/11/23 00:31:17;;;;;;;;;;;;;;;5.78;nan;101737.78;5037728;28;19921;-86
2023/11/23 00:33:42;;;;;;;;;;;;;;;5.79;nan;101726.13;5037514;28;19932;-85
2023/11/23 00:36:08;;;;;;;;;;;;;;;5.80;nan;101733.09;5036697;28;20611;-85
2023/11/23 00:38:33;;;;;;;;;;;;;;;5.85;nan;101737.81;5039051;28;19921;-85
2023/11/23 00:41:01;;;;;;;;;;;;;;;5.86;nan;101728.84;5034360;28;19931;-85
2023/11/23 00:43:26;;;;;;;;;;;;;;;5.90;nan;101722.97;5035253;28;19929;-87
2023/11/23 00:45:51;;;;;;;;;;;;;;;5.96;nan;101724.88;5038040;28;20448;-85
2023/11/23 00:48:17;;;;;;;;;;;;;;;6.01;nan;101705.66;5035051;28;19968;-87
2023/11/23 00:50:42;;;;;;;;;;;;;;;6.07;nan;101695.03;5039687;28;19948;-86
2023/11/23 00:53:07;;;;;;;;;;;;;;;6.06;nan;101693.41;5039155;28;19925;-86
2023/11/23 00:55:33;;;;;;;;;;;;;;;6.11;nan;101679.53;5036702;28;20004;-86
2023/11/23 00:57:58;;;;;;;;;;;;;;;6.10;nan;101683.19;5038337;28;19936;-85
2023/11/23 01:00:24;;;;;;;;;;;;;;;6.06;nan;101684.59;5035988;28;20302;-85
2023/11/23 01:02:50;;;;;;;;;;;;;;;6.02;nan;101662.06;5034376;28;20527;-86
2023/11/23 01:05:18;;;;;;;;;;;;;;;6.05;nan;101657.19;5038529;28;19921;-86
2023/11/23 01:07:44;;;;;;;;;;;;;;;6.07;nan;101643.66;5037608;28;19929;-85
2023/11/23 01:10:10;;;;;;;;;;;;;;;6.10;nan;101645.13;5038192;28;20059;-85
2023/11/23 01:12:35;;;;;;;;;;;;;;;6.16;nan;101633.72;5035759;28;19924;-86
2023/11/23 01:15:01;;;;;;;;;;;;;;;6.20;nan;101621.66;5039353;28;20077;-85
2023/11/23 01:17:27;;;;;;;;;;;;;;;6.30;nan;101624.78;5035668;28;20303;-85
2023/11/23 01:19:52;;;;;;;;;;;;;;;6.32;nan;101620.88;5039660;28;20603;-85
2023/11/23 01:22:18;;;;;;;;;;;;;;;6.39;nan;101618.25;5040914;28;19917;-85
2023/11/23 01:24:43;;;;;;;;;;;;;;;6.45;nan;101629.94;5039709;28;20718;-85
2023/11/23 01:27:08;;;;;;;;;;;;;;;6.47;nan;101631.41;5041930;28;20289;-86
2023/11/23 01:29:33;;;;;;;;;;;;;;;6.50;nan;101617.69;5042969;28;19925;-86
2023/11/23 01:31:59;;;;;;;;;;;;;;;6.53;nan;101624.44;5038290;28;19924;-86
2023/11/23 01:34:24;;;;;;;;;;;;;;;6.57;nan;101612.38;5041974;28;19948;-85
2023/11/23 01:36:50;;;;;;;;;;;;;;;6.62;nan;101601.91;5042244;28;19925;-85
2023/11/23 01:39:18;;;;;;;;;;;;;;;6.66;nan;101597.88;5040712;28;19921;-86
2023/11/23 01:41:43;;;;;;;;;;;;;;;6.73;nan;101603.19;5040830;28;20332;-86
2023/11/23 01:44:10;;;;;;;;;;;;;;;6.70;nan;101600.94;5038738;28;19921;-86
2023/11/23 01:46:35;;;;;;;;;;;;;;;6.73;nan;101581.88;5039922;28;19974;-86
2023/11/23 01:49:02;;;;;;;;;;;;;;;6.79;nan;101578.41;5041338;28;20328;-85
2023/11/23 01:51:28;;;;;;;;;;;;;;;6.85;nan;101590.94;5041132;28;19924;-86
2023/11/23 01:53:54;;;;;;;;;;;;;;;6.94;nan;101585.19;5042157;28;19920;-85
2023/11/23 01:56:20;;;;;;;;;;;;;;;6.97;nan;101573.31;5042174;28;19982;-85
2023/11/23 01:58:46;;;;;;;;;;;;;;;7.04;nan;101574.13;5039934;28;20488;-85
2023/11/23 02:01:11;;;;;;;;;;;;;;;7.17;nan;101573.31;5042694;28;19925;-85
2023/11/23 02:03:38;;;;;;;;;;;;;;;7.23;nan;101557.34;5039874;28;19921;-86
2023/11/23 02:06:03;;;;;;;;;;;;;;;7.36;nan;101558.31;5039918;28;20016;-86
2023/11/23 02:08:28;;;;;;;;;;;;;;;7.43;nan;101541.31;5042699;28;20438;-86
2023/11/23 02:10:54;;;;;;;;;;;;;;;7.47;nan;101558.53;5039676;28;20288;-86
2023/11/23 02:13:19;;;;;;;;;;;;;;;7.57;nan;101547.44;5036742;28;19921;-85
2023/11/23 02:15:44;;;;;;;;;;;;;;;7.67;nan;101539.81;5042589;28;19932;-85
2023/11/23 02:18:11;;;;;;;;;;;;;;;7.67;nan;101533.66;5038261;28;19921;-86
2023/11/23 02:20:38;;;;;;;;;;;;;;;7.73;nan;101539.00;5039947;28;19917;-86
2023/11/23 02:23:04;;;;;;;;;;;;;;;7.83;nan;101538.53;5038204;28;19943;-85
2023/11/23 02:25:29;;;;;;;;;;;;;;;7.82;nan;101524.38;5041677;28;19938;-86
2023/11/23 02:27:54;;;;;;;;;;;;;;;7.93;nan;101520.25;5037529;28;19925;-84
2023/11/23 02:30:20;;;;;;;;;;;;;;;7.98;nan;101506.25;5040162;28;19924;-86
2023/11/23 02:32:45;;;;;;;;;;;;;;;8.01;nan;101503.16;5040030;28;20369;-86
2023/11/23 02:35:12;;;;;;;;;;;;;;;8.04;nan;101495.53;5041954;28;20360;-86
2023/11/23 02:37:38;;;;;;;;;;;;;;;8.10;nan;101492.03;5041291;28;19921;-86
2023/11/23 02:40:03;;;;;;;;;;;;;;;8.15;nan;101481.53;5039207;28;19924;-86
2023/11/23 02:42:29;;;;;;;;;;;;;;;8.20;nan;101480.88;5038434;28;20290;-86
2023/11/23 02:44:54;;;;;;;;;;;;;;;8.22;nan;101475.31;5039780;28;21328;-86
2023/11/23 02:47:20;;;;;;;;;;;;;;;8.23;nan;101466.28;5040959;28;20369;-86
2023/11/23 02:49:45;;;;;;;;;;;;;;;8.27;nan;101457.66;5039300;28;19921;-85
2023/11/23 02:52:11;;;;;;;;;;;;;;;8.32;nan;101468.50;5040402;28;20425;-86
2023/11/23 02:54:37;;;;;;;;;;;;;;;8.37;nan;101467.88;5036875;28;19951;-86
2023/11/23 02:57:02;;;;;;;;;;;;;;;8.41;nan;101451.19;5040892;28;20495;-86
2023/11/23 02:59:27;;;;;;;;;;;;;;;8.42;nan;101441.34;5040468;28;19917;-86
2023/11/23 03:01:53;;;;;;;;;;;;;;;8.46;nan;101429.22;5040418;28;19967;-86
2023/11/23 03:04:18;;;;;;;;;;;;;;;8.50;nan;101435.75;5036915;28;19956;-86
2023/11/23 03:06:43;;;;;;;;;;;;;;;8.58;nan;101423.97;5035445;28;20023;-86
2023/11/23 03:09:09;;;;;;;;;;;;;;;8.63;nan;101424.16;5035053;28;20328;-85
2023/11/23 03:11:34;;;;;;;;;;;;;;;8.60;nan;101427.22;5038564;28;19996;-85
2023/11/23 03:13:59;;;;;;;;;;;;;;;8.63;nan;101424.16;5039141;28;19917;-85
2023/11/23 03:16:25;;;;;;;;;;;;;;;8.62;nan;101430.53;5039509;28;20098;-86
2023/11/23 03:18:50;;;;;;;;;;;;;;;8.64;nan;101413.25;5038023;28;20044;-85
2023/11/23 03:21:16;;;;;;;;;;;;;;;8.66;nan;101416.50;5042081;28;19923;-86
2023/11/23 03:23:42;;;;;;;;;;;;;;;8.70;nan;101412.34;5036981;28;20436;-86
2023/11/23 03:26:07;;;;;;;;;;;;;;;8.76;nan;101407.97;5038957;28;19923;-86
2023/11/23 03:28:32;;;;;;;;;;;;;;;8.81;nan;101407.34;5037431;28;19947;-85
2023/11/23 03:30:58;;;;;;;;;;;;;;;8.87;nan;101407.25;5038580;28;20385;-85
2023/11/23 03:33:24;;;;;;;;;;;;;;;8.93;nan;101413.56;5038534;28;20075;-86
2023/11/23 03:35:50;;;;;;;;;;;;;;;8.97;nan;101420.09;5040812;28;19916;-86
2023/11/23 03:38:15;;;;;;;;;;;;;;;9.03;nan;101389.84;5037746;28;20288;-86
2023/11/23 03:40:41;;;;;;;;;;;;;;;9.09;nan;101397.78;5038609;28;19917;-86
2023/11/23 03:43:07;;;;;;;;;;;;;;;9.17;nan;101391.34;5042193;28;19916;-85
2023/11/23 03:45:33;;;;;;;;;;;;;;;9.19;nan;101378.56;5036368;28;19924;-86
2023/11/23 03:47:58;;;;;;;;;;;;;;;9.23;nan;101384.28;5039359;28;19927;-85
2023/11/23 03:50:27;;;;;;;;;;;;;;;9.33;nan;101384.53;5040805;28;19975;-86
2023/11/23 03:52:52;;;;;;;;;;;;;;;9.39;nan;101368.44;5041084;28;20003;-86
2023/11/23 03:55:18;;;;;;;;;;;;;;;9.44;nan;101373.09;5040515;28;19929;-86
2023/11/23 03:57:44;;;;;;;;;;;;;;;9.51;nan;101363.13;5040042;28;20012;-87
2023/11/23 04:00:09;;;;;;;;;;;;;;;9.57;nan;101372.13;5039660;28;19971;-86
2023/11/23 04:02:34;;;;;;;;;;;;;;;9.67;nan;101367.03;5034139;28;20823;-86
2023/11/23 04:05:00;;;;;;;;;;;;;;;9.64;nan;101346.09;5040571;28;19917;-86
2023/11/23 04:07:26;;;;;;;;;;;;;;;9.64;nan;101349.56;5037206;28;20915;-85
2023/11/23 04:09:51;;;;;;;;;;;;;;;9.63;nan;101339.09;5036061;28;20286;-86
2023/11/23 04:12:16;;;;;;;;;;;;;;;9.69;nan;101338.19;5038934;28;19917;-86
2023/11/23 04:14:41;;;;;;;;;;;;;;;9.75;nan;101331.13;5038464;28;19989;-86
2023/11/23 04:17:07;;;;;;;;;;;;;;;9.75;nan;101320.41;5033934;28;19928;-87
2023/11/23 04:19:32;;;;;;;;;;;;;;;9.78;nan;101319.97;5037950;28;19979;-85
2023/11/23 04:21:59;;;;;;;;;;;;;;;9.81;nan;101324.84;5036261;28;20003;-86
2023/11/23 04:24:25;;;;;;;;;;;;;;;9.83;nan;101317.41;5036847;28;19924;-86
2023/11/23 04:26:52;;;;;;;;;;;;;;;9.87;nan;101313.22;5037684;28;20382;-86
2023/11/23 04:29:17;;;;;;;;;;;;;;;9.88;nan;101309.53;5038231;28;19921;-86
2023/11/23 04:31:43;;;;;;;;;;;;;;;9.94;nan;101297.88;5037756;28;19920;-86
2023/11/23 04:34:08;;;;;;;;;;;;;;;9.99;nan;101298.00;5038562;28;19931;-86
2023/11/23 04:36:34;;;;;;;;;;;;;;;10.00;nan;101305.81;5037367;28;19981;-86
2023/11/23 04:38:59;;;;;;;;;;;;;;;10.03;nan;101296.50;5037256;28;19917;-87
2023/11/23 04:41:25;;;;;;;;;;;;;;;10.10;nan;101296.41;5035624;28;20409;-87
2023/11/23 04:43:51;;;;;;;;;;;;;;;10.12;nan;101281.72;5036606;28;19925;-87
2023/11/23 04:46:16;;;;;;;;;;;;;;;10.13;nan;101287.91;5040652;28;19927;-86
2023/11/23 04:48:42;;;;;;;;;;;;;;;10.20;nan;101284.06;5037054;28;19924;-85
2023/11/23 04:51:07;;;;;;;;;;;;;;;10.23;nan;101280.97;5035747;28;20024;-86
2023/11/23 04:53:32;;;;;;;;;;;;;;;10.27;nan;101274.09;5040250;28;19943;-85
2023/11/23 04:55:58;;;;;;;;;;;;;;;10.33;nan;101283.03;5044108;28;19917;-86
2023/11/23 04:58:23;;;;;;;;;;;;;;;10.29;nan;101257.78;5043781;28;19921;-86
2023/11/23 05:00:49;;;;;;;;;;;;;;;10.34;nan;101260.56;5040320;28;19921;-85
2023/11/23 05:03:14;;;;;;;;;;;;;;;10.34;nan;101244.50;5042879;28;19925;-86
2023/11/23 05:05:39;;;;;;;;;;;;;;;10.32;nan;101233.22;5046484;28;19921;-86
2023/11/23 05:08:05;;;;;;;;;;;;;;;10.42;nan;101228.09;5044414;28;19979;-86
2023/11/23 05:10:30;;;;;;;;;;;;;;;10.44;nan;101217.94;5047507;28;19921;-86
2023/11/23 05:12:55;;;;;;;;;;;;;;;10.45;nan;101230.28;5044605;28;19979;-86
2023/11/23 05:15:21;;;;;;;;;;;;;;;10.51;nan;101231.22;5032653;28;19939;-86
2023/11/23 05:17:46;;;;;;;;;;;;;;;10.57;nan;101233.75;5044829;28;19996;-86
2023/11/23 05:20:12;;;;;;;;;;;;;;;10.63;nan;101231.19;5046506;28;19917;-86
2023/11/23 05:22:38;;;;;;;;;;;;;;;10.64;nan;101224.78;5047485;28;20516;-86
2023/11/23 05:25:03;;;;;;;;;;;;;;;10.68;nan;101228.59;5041551;28;20020;-86
2023/11/23 05:27:28;;;;;;;;;;;;;;;10.73;nan;101223.34;5043643;28;20348;-86
2023/11/23 05:29:54;;;;;;;;;;;;;;;10.80;nan;101229.41;5041734;28;19932;-86
2023/11/23 05:32:19;;;;;;;;;;;;;;;10.87;nan;101228.19;5042445;28;20023;-86
2023/11/23 05:34:44;;;;;;;;;;;;;;;10.93;nan;101223.75;5041447;28;20584;-87
2023/11/23 05:37:09;;;;;;;;;;;;;;;10.93;nan;101220.25;5042777;28;19925;-86
2023/11/23 05:39:35;;;;;;;;;;;;;;;11.01;nan;101230.63;5041963;28;20403;-88
2023/11/23 05:42:00;;;;;;;;;;;;;;;11.02;nan;101224.19;5043423;28;19916;-86
2023/11/23 05:44:26;;;;;;;;;;;;;;;11.07;nan;101217.06;5044096;28;19957;-86
2023/11/23 05:46:51;;;;;;;;;;;;;;;11.09;nan;101219.50;5042123;28;19925;-86
2023/11/23 05:49:21;;;;;;;;;;;;;;;11.16;nan;101223.69;5034862;28;19917;-85
2023/11/23 05:51:46;;;;;;;;;;;;;;;11.13;nan;101221.47;5043197;28;19924;-86
2023/11/23 05:54:12;;;;;;;;;;;;;;;11.13;nan;101216.13;5043296;28;20423;-86
2023/11/23 05:56:37;;;;;;;;;;;;;;;11.19;nan;101208.97;5042185;28;19967;-85
2023/11/23 05:59:02;;;;;;;;;;;;;;;11.18;nan;101208.16;5045219;28;19956;-86
2023/11/23 06:01:27;;;;;;;;;;;;;;;11.23;nan;101199.38;5039634;28;20495;-86
2023/11/23 06:03:53;;;;;;;;;;;;;;;11.24;nan;101184.09;5045791;28;19956;-87
2023/11/23 06:06:19;;;;;;;;;;;;;;;11.30;nan;101175.06;5039883;28;19917;-85
2023/11/23 06:08:45;;;;;;;;;;;;;;;11.34;nan;101171.69;5041606;28;19987;-86
2023/11/23 06:11:10;;;;;;;;;;;;;;;11.36;nan;101168.75;5038445;28;19925;-86
2023/11/23 06:13:35;;;;;;;;;;;;;;;11.37;nan;101162.34;5039449;28;19932;-87
2023/11/23 06:16:01;;;;;;;;;;;;;;;11.36;nan;101158.03;5040739;28;20356;-85
2023/11/23 06:18:27;;;;;;;;;;;;;;;11.39;nan;101152.97;5039120;28;20504;-86
2023/11/23 06:20:53;;;;;;;;;;;;;;;11.48;nan;101170.28;5040781;28;19921;-86
2023/11/23 06:23:18;;;;;;;;;;;;;;;11.59;nan;101155.16;5044589;28;20463;-87
2023/11/23 06:25:44;;;;;;;;;;;;;;;11.65;nan;101156.06;5041265;28;20335;-86
2023/11/23 06:28:09;;;;;;;;;;;;;;;11.69;nan;101141.91;5041411;28;20376;-86
2023/11/23 06:30:35;;;;;;;;;;;;;;;11.72;nan;101144.09;5037940;28;19921;-86
2023/11/23 06:33:00;;;;;;;;;;;;;;;11.79;nan;101143.97;5037706;28;19924;-86
2023/11/23 06:35:25;;;;;;;;;;;;;;;11.79;nan;101139.41;5040203;28;19933;-86
2023/11/23 06:37:51;;;;;;;;;;;;;;;11.85;nan;101131.41;5042913;28;19971;-86
2023/11/23 06:40:17;;;;;;;;;;;;;;;11.90;nan;101139.56;5040929;28;20523;-86
2023/11/23 06:42:42;;;;;;;;;;;;;;;11.97;nan;101129.44;5038536;28;19917;-85
2023/11/23 06:45:08;;;;;;;;;;;;;;;12.04;nan;101122.03;5040107;28;20399;-86
2023/11/23 06:47:33;;;;;;;;;;;;;;;12.07;nan;101125.03;5039028;28;20428;-85
2023/11/23 06:49:58;;;;;;;;;;;;;;;12.13;nan;101117.84;5023391;28;19917;-86
2023/11/23 06:52:23;;;;;;;;;;;;;;;12.10;nan;101091.50;5040434;28;19925;-86
2023/11/23 06:54:49;;;;;;;;;;;;;;;12.14;nan;101092.59;5039061;28;20582;-86
2023/11/23 06:57:14;;;;;;;;;;;;;;;12.23;nan;101090.31;5040466;28;19928;-86
2023/11/23 06:59:39;;;;;;;;;;;;;;;12.27;nan;101094.13;5039271;28;20451;-87
2023/11/23 07:02:05;;;;;;;;;;;;;;;12.27;nan;101092.25;5039636;28;19917;-87
2023/11/23 07:04:30;;;;;;;;;;;;;;;12.35;nan;101088.28;5043467;28;19924;-86
2023/11/23 07:06:56;;;;;;;;;;;;;;;12.37;nan;101078.91;5041263;28;19920;-87
2023/11/23 07:09:21;;;;;;;;;;;;;;;12.40;nan;101077.63;5043273;28;20385;-86
2023/11/23 07:11:47;;;;;;;;;;;;;;;12.44;nan;101067.16;5038785;28;20717;-86
2023/11/23 07:14:13;;;;;;;;;;;;;;;12.48;nan;101071.78;5044188;28;19920;-86
2023/11/23 07:16:38;;;;;;;;;;;;;;;12.47;nan;101055.91;5039446;28;20408;-86
2023/11/23 07:19:03;;;;;;;;;;;;;;;12.57;nan;101069.47;5039596;28;19916;-86
2023/11/23 07:21:29;;;;;;;;;;;;;;;12.58;nan;101063.84;5042584;28;20373;-86
2023/11/23 07:23:54;;;;;;;;;;;;;;;12.54;nan;101048.44;5041002;28;19924;-86
2023/11/23 07:26:20;;;;;;;;;;;;;;;12.58;nan;101057.66;5042820;28;20020;-86
2023/11/23 07:28:46;;;;;;;;;;;;;;;12.58;nan;101069.22;5043022;28;19921;-87
2023/11/23 07:31:11;;;;;;;;;;;;;;;12.63;nan;101068.44;5042157;28;20433;-86
2023/11/23 07:33:37;;;;;;;;;;;;;;;12.67;nan;101054.22;5045696;28;20080;-86
2023/11/23 07:36:03;;;;;;;;;;;;;;;12.77;nan;101055.41;5037846;28;20297;-87
2023/11/23 07:38:28;;;;;;;;;;;;;;;12.81;nan;101059.19;5042316;28;19924;-86
2023/11/23 07:40:53;;;;;;;;;;;;;;;12.83;nan;101024.81;5043496;28;20784;-87
2023/11/23 07:43:19;;;;;;;;;;;;;;;12.87;nan;101010.59;5043732;28;19924;-86
2023/11/23 07:45:44;;;;;;;;;;;;;;;12.89;nan;101016.50;5043598;28;19928;-87
2023/11/23 07:48:11;;;;;;;;;;;;;;;12.89;nan;101008.44;5044630;28;20012;-87
2023/11/23 07:50:37;;;;;;;;;;;;;;;12.94;nan;101007.69;5040971;28;20384;-86
2023/11/23 07:53:02;;;;;;;;;;;;;;;12.98;nan;101016.88;5042569;28;19924;-87
2023/11/23 07:55:28;;;;;;;;;;;;;;;12.99;nan;101019.28;5042949;28;19917;-86
2023/11/23 07:57:53;;;;;;;;;;;;;;;13.02;nan;101017.97;5039533;28;19921;-86
2023/11/23 08:00:19;;;;;;;;;;;;;;;12.97;nan;101001.78;5044718;28;20052;-86
2023/11/23 08:02:45;;;;;;;;;;;;;;;13.04;nan;101004.25;5040468;28;20543;-86
2023/11/23 08:05:11;;;;;;;;;;;;;;;13.09;nan;100997.03;5041622;28;19928;-86
2023/11/23 08:07:39;;;;;;;;;;;;;;;13.14;nan;100998.97;5039444;28;19928;-85
2023/11/23 08:10:12;;;;;;;;;;;;;;;13.20;nan;101001.44;5040316;28;19964;-87
2023/11/23 08:12:39;;;;;;;;;;;;;;;13.23;nan;101010.88;5040236;28;20004;-86
2023/11/23 08:15:06;;;;;;;;;;;;;;;13.27;nan;101003.91;5039853;28;20335;-87
2023/11/23 08:17:32;;;;;;;;;;;;;;;13.29;nan;100991.03;5040320;28;19920;-87
2023/11/23 08:19:57;;;;;;;;;;;;;;;13.36;nan;100991.59;5039884;28;19917;-87
2023/11/23 08:22:23;;;;;;;;;;;;;;;13.37;nan;100987.81;5040784;28;20652;-86
2023/11/23 08:24:48;;;;;;;;;;;;;;;13.40;nan;100991.88;5037180;28;19925;-87
2023/11/23 08:27:16;;;;;;;;;;;;;;;13.46;nan;100985.44;5041875;28;19932;-87
2023/11/23 08:29:44;;;;;;;;;;;;;;;13.45;nan;100989.19;5039040;28;19952;-87
2023/11/23 08:32:12;;;;;;;;;;;;;;;13.46;nan;100994.31;5040319;28;19925;-87
2023/11/23 08:34:38;;;;;;;;;;;;;;;13.52;nan;100971.75;5038819;28;20630;-85
2023/11/23 08:37:03;;;;;;;;;;;;;;;13.52;nan;100963.69;5040226;28;19921;-86
2023/11/23 08:39:29;;;;;;;;;;;;;;;13.55;nan;100962.34;5041167;28;20360;-87
2023/11/23 08:41:54;;;;;;;;;;;;;;;13.54;nan;100944.59;5035688;28;19925;-85
2023/11/23 08:44:22;;;;;;;;;;;;;;;13.54;nan;100949.97;5041178;28;19940;-86
2023/11/23 08:46:48;;;;;;;;;;;;;;;13.58;nan;100930.31;5039139;28;19987;-87
2023/11/23 08:49:13;;;;;;;;;;;;;;;13.62;nan;100914.44;5040059;28;20274;-85
2023/11/23 08:51:39;;;;;;;;;;;;;;;13.58;nan;100918.75;5037360;28;19920;-86
2023/11/23 08:54:14;;;;;;;;;;;;;;;13.57;nan;100917.13;5037789;28;19925;-86
2023/11/23 08:56:39;;;;;;;;;;;;;;;13.60;nan;100911.22;5038096;28;19960;-85
2023/11/23 08:59:05;;;;;;;;;;;;;;;13.69;nan;100922.28;5040613;28;20024;-86
2023/11/23 09:01:33;;;;;;;;;;;;;;;13.73;nan;100915.31;5042593;28;19923;-87
2023/11/23 09:03:58;;;;;;;;;;;;;;;13.76;nan;100920.16;5037895;28;19928;-86
2023/11/23 09:06:27;;;;;;;;;;;;;;;13.80;nan;100899.69;5040929;28;20380;-87
2023/11/23 09:08:52;;;;;;;;;;;;;;;13.87;nan;100889.50;5037346;28;19991;-87
2023/11/23 09:11:21;;;;;;;;;;;;;;;13.88;nan;100885.72;5038220;28;20428;-87
2023/11/23 09:13:47;;;;;;;;;;;;;;;13.94;nan;100873.88;5037477;28;20411;-85
2023/11/23 09:16:13;;;;;;;;;;;;;;;13.98;nan;100880.34;5042389;28;19921;-86
2023/11/23 09:18:39;;;;;;;;;;;;;;;14.02;nan;100859.09;5035391;28;19920;-86
2023/11/23 09:21:05;;;;;;;;;;;;;;;13.99;nan;100849.63;5040907;28;20377;-86
2023/11/23 09:23:30;;;;;;;;;;;;;;;13.99;nan;100841.53;5041791;28;20055;-87
2023/11/23 09:25:56;;;;;;;;;;;;;;;14.02;nan;100832.16;5038966;28;19952;-86
2023/11/23 09:28:22;;;;;;;;;;;;;;;14.01;nan;100852.88;5043945;28;19920;-87
2023/11/23 09:30:47;;;;;;;;;;;;;;;14.08;nan;100856.13;5041962;28;20638;-86
2023/11/23 09:33:13;;;;;;;;;;;;;;;14.19;nan;100854.25;5038471;28;19921;-87
2023/11/23 09:35:38;;;;;;;;;;;;;;;14.23;nan;100838.34;5041717;28;20411;-87
2023/11/23 09:38:04;;;;;;;;;;;;;;;14.31;nan;100843.19;5040532;28;20444;-87
2023/11/23 09:40:29;;;;;;;;;;;;;;;14.38;nan;100825.66;5039301;28;20376;-86
2023/11/23 09:42:54;;;;;;;;;;;;;;;14.43;nan;100817.59;5043853;28;20312;-86
2023/11/23 09:45:20;;;;;;;;;;;;;;;14.55;nan;100797.63;5042739;28;20332;-86
2023/11/23 09:47:48;;;;;;;;;;;;;;;14.58;nan;100813.28;5042773;28;20395;-87
2023/11/23 09:50:14;;;;;;;;;;;;;;;14.61;nan;100788.44;5044683;28;19921;-88
2023/11/23 09:52:41;;;;;;;;;;;;;;;14.67;nan;100801.63;5047566;28;19916;-86
2023/11/23 09:55:08;;;;;;;;;;;;;;;14.71;nan;100799.19;5046283;28;19917;-88
2023/11/23 09:57:33;;;;;;;;;;;;;;;14.68;nan;100787.06;5047838;28;19923;-89
2023/11/23 09:59:58;;;;;;;;;;;;;;;14.73;nan;100795.16;5048423;28;20102;-87
2023/11/23 10:02:24;;;;;;;;;;;;;;;14.80;nan;100784.88;5044325;28;19917;-89
2023/11/23 10:04:50;;;;;;;;;;;;;;;14.84;nan;100800.50;5044356;28;20443;-89
2023/11/23 10:07:16;;;;;;;;;;;;;;;14.90;nan;100804.78;5044241;28;20099;-88
2023/11/23 10:09:42;;;;;;;;;;;;;;;14.89;nan;100797.78;5045035;28;19913;-89
2023/11/23 10:12:07;;;;;;;;;;;;;;;14.90;nan;100796.69;5043201;28;20273;-87
2023/11/23 10:14:33;;;;;;;;;;;;;;;14.92;nan;100814.25;5044926;28;19916;-88
2023/11/23 10:16:58;;;;;;;;;;;;;;;14.97;nan;100808.03;5047162;28;20348;-88
2023/11/23 10:19:24;;;;;;;;;;;;;;;15.01;nan;100801.00;5042362;28;19932;-88
2023/11/23 10:21:49;;;;;;;;;;;;;;;15.01;nan;100785.59;5041781;28;20305;-88
2023/11/23 10:24:16;;;;;;;;;;;;;;;15.03;nan;100785.31;5045940;28;20014;-89
2023/11/23 10:26:42;;;;;;;;;;;;;;;15.03;nan;100794.22;5048547;28;19924;-89
2023/11/23 10:29:09;;;;;;;;;;;;;;;15.04;nan;100789.63;5041328;28;19921;-88
2023/11/23 10:31:35;;;;;;;;;;;;;;;15.07;nan;100775.59;5041864;28;19991;-89
2023/11/23 10:34:00;;;;;;;;;;;;;;;15.06;nan;100784.78;5042831;28;19921;-88
2023/11/23 10:36:27;;;;;;;;;;;;;;;15.06;nan;100787.47;5045990;28;19917;-88
2023/11/23 10:38:54;;;;;;;;;;;;;;;15.06;nan;100777.47;5041106;28;19917;-88
2023/11/23 10:41:20;;;;;;;;;;;;;;;15.05;nan;100753.47;5048266;28;19917;-89
2023/11/23 10:43:46;;;;;;;;;;;;;;;15.07;nan;100746.72;5045429;28;19987;-88
2023/11/23 10:46:12;;;;;;;;;;;;;;;15.07;nan;100743.22;5042066;28;19920;-88
2023/11/23 10:48:38;;;;;;;;;;;;;;;15.10;nan;100732.69;5042364;28;19932;-88
2023/11/23 10:51:04;;;;;;;;;;;;;;;15.14;nan;100716.75;5042343;28;19921;-88
2023/11/23 10:53:30;;;;;;;;;;;;;;;15.25;nan;100720.97;5041031;28;19920;-87
2023/11/23 10:55:58;;;;;;;;;;;;;;;15.25;nan;100707.47;5036168;28;19917;-89
2023/11/23 10:58:24;;;;;;;;;;;;;;;15.27;nan;100708.03;5043981;28;20363;-87
2023/11/23 11:00:50;;;;;;;;;;;;;;;15.29;nan;100688.84;5041664;28;19925;-89
2023/11/23 11:03:17;;;;;;;;;;;;;;;15.28;nan;100682.66;5048291;28;19932;-89
2023/11/23 11:05:45;;;;;;;;;;;;;;;15.28;nan;100687.25;5047219;28;19924;-87
2023/11/23 11:08:16;;;;;;;;;;;;;;;15.28;nan;100695.34;5039274;28;19967;-89
2023/11/23 11:10:44;;;;;;;;;;;;;;;15.32;nan;100693.69;5044760;28;19917;-88
2023/11/23 11:13:14;;;;;;;;;;;;;;;15.33;nan;100687.19;5043444;28;19916;-89
2023/11/23 11:16:09;;;;;;;;;;;;;;;15.41;nan;100692.00;5044351;28;19917;-88
2023/11/23 11:18:40;;;;;;;;;;;;;;;15.51;nan;100683.81;5019771;28;19928;-89
2023/11/23 11:21:16;;;;;;;;;;;;;;;15.49;nan;100683.31;5043593;28;20260;-89
2023/11/23 11:24:10;;;;;;;;;;;;;;;15.59;nan;100679.72;5037502;28;19921;-89
2023/11/23 11:26:35;;;;;;;;;;;;;;;15.62;nan;100671.09;5043268;28;19931;-88
2023/11/23 11:29:05;;;;;;;;;;;;;;;15.69;nan;100666.16;5043161;28;19931;-87
2023/11/23 11:31:41;;;;;;;;;;;;;;;15.75;nan;100702.81;5043902;28;19917;-87
2023/11/23 11:34:12;;;;;;;;;;;;;;;15.78;nan;100650.94;5037690;28;19917;-89
2023/11/23 11:36:38;;;;;;;;;;;;;;;15.83;nan;100650.09;5038559;28;19920;-88
2023/11/23 11:39:05;;;;;;;;;;;;;;;15.86;nan;100647.63;5045794;28;20399;-89
2023/11/23 11:41:34;;;;;;;;;;;;;;;15.86;nan;100647.63;5044839;28;19928;-88
2023/11/23 11:44:00;;;;;;;;;;;;;;;15.89;nan;100649.75;5043212;28;19925;-89
2023/11/23 11:46:28;;;;;;;;;;;;;;;15.94;nan;100640.78;5047902;28;19920;-90
2023/11/23 11:48:54;;;;;;;;;;;;;;;16.00;nan;100645.84;5048784;28;19940;-90
2023/11/23 11:51:19;;;;;;;;;;;;;;;16.03;nan;100641.78;5044465;28;19913;-88
2023/11/23 11:53:46;;;;;;;;;;;;;;;16.05;nan;100636.88;5042072;28;19920;-89
2023/11/23 11:56:13;;;;;;;;;;;;;;;16.07;nan;100625.78;5044328;28;19916;-89
2023/11/23 11:58:38;;;;;;;;;;;;;;;16.09;nan;100621.69;5041422;28;19936;-89
2023/11/23 12:01:04;;;;;;;;;;;;;;;16.15;nan;100619.72;5045643;28;19921;-88
2023/11/23 12:03:30;;;;;;;;;;;;;;;16.18;nan;100609.19;5045703;28;20014;-87
2023/11/23 12:05:55;;;;;;;;;;;;;;;16.19;nan;100612.69;5048059;28;19956;-88
2023/11/23 12:08:20;;;;;;;;;;;;;;;16.22;nan;100610.19;5046124;28;20064;-88
2023/11/23 12:10:46;;;;;;;;;;;;;;;16.28;nan;100608.22;5051242;28;19992;-91
2023/11/23 12:13:14;;;;;;;;;;;;;;;16.28;nan;100592.81;5045921;28;19920;-89
2023/11/23 12:15:44;;;;;;;;;;;;;;;16.23;nan;100573.16;5041245;28;19921;-88
2023/11/23 12:18:11;;;;;;;;;;;;;;;16.19;nan;100577.53;5043698;28;19921;-88
2023/11/23 12:20:37;;;;;;;;;;;;;;;16.19;nan;100564.03;5045756;28;19924;-89
2023/11/23 12:23:04;;;;;;;;;;;;;;;16.13;nan;100557.06;5049818;28;19962;-89
2023/11/23 12:25:30;;;;;;;;;;;;;;;16.11;nan;100551.94;5037274;28;19916;-89
2023/11/23 12:27:55;;;;;;;;;;;;;;;16.14;nan;100542.44;5041103;28;20618;-88
2023/11/23 12:30:23;;;;;;;;;;;;;;;16.15;nan;100550.25;5050614;28;19996;-90
2023/11/23 12:32:48;;;;;;;;;;;;;;;16.15;nan;100549.47;5040533;28;19925;-90
2023/11/23 12:35:13;;;;;;;;;;;;;;;16.17;nan;100521.06;5046450;28;19920;-89
2023/11/23 12:37:39;;;;;;;;;;;;;;;16.19;nan;100535.09;5043058;28;19922;-89
2023/11/23 12:40:09;;;;;;;;;;;;;;;16.17;nan;100518.38;5046632;28;20377;-87
2023/11/23 12:42:35;;;;;;;;;;;;;;;16.17;nan;100521.06;5047158;28;19925;-89
2023/11/23 12:45:02;;;;;;;;;;;;;;;16.20;nan;100509.69;5037870;28;19939;-87
2023/11/23 12:47:27;;;;;;;;;;;;;;;16.29;nan;100515.22;5027626;28;19924;-89
2023/11/23 12:49:53;;;;;;;;;;;;;;;16.26;nan;100513.91;5041909;28;19967;-90
2023/11/23 12:52:18;;;;;;;;;;;;;;;16.28;nan;100500.09;5047087;28;19921;-89
2023/11/23 12:54:43;;;;;;;;;;;;;;;16.31;nan;100486.78;5043617;28;19974;-89